UAL2523 KEGE-KSLC
Flight info
| Callsign | UAL2523 |
|---|---|
| Flight time | 0h 47m |
| Altitude | 30000 |
| Route | BEVVR1 SPRKT EKR RACER JAZZZ1 |
| Aircraft | B752/M-SDE2E3FGHIJ3J4J7RWXY/LB1 |
Departure
| Time | 2026-05-07 00:53 |
|---|---|
| Airport | Eagle County Regional Airport (KEGE) |
Arrival
| Time | 2026-05-07 01:40 |
|---|---|
| Airport | Salt Lake City International Airport (KSLC) |
| Time | Latitude | Longitude | Altitude | Speed | Heading |
|---|---|---|---|---|---|
| 2026-05-07 00:34 | 39.64080 | -106.91377 | 6575 ft | 0 kts | 172° |
| 2026-05-07 00:45 | 39.64091 | -106.91379 | 6575 ft | 2 kts | 172° |
| 2026-05-07 00:46 | 39.64106 | -106.91382 | 6575 ft | 2 kts | 172° |
| 2026-05-07 00:46 | 39.64116 | -106.91383 | 6575 ft | 0 kts | 172° |
| 2026-05-07 00:46 | 39.64128 | -106.91390 | 6575 ft | 2 kts | 122° |
| 2026-05-07 00:46 | 39.64131 | -106.91403 | 6575 ft | 0 kts | 84° |
| 2026-05-07 00:47 | 39.64130 | -106.91412 | 6575 ft | 1 kts | 81° |
| 2026-05-07 00:47 | 39.64129 | -106.91412 | 6575 ft | 0 kts | 81° |
| 2026-05-07 00:48 | 39.64131 | -106.91401 | 6575 ft | 6 kts | 82° |
| 2026-05-07 00:49 | 39.64147 | -106.91233 | 6575 ft | 31 kts | 82° |
| 2026-05-07 00:49 | 39.64187 | -106.90968 | 6575 ft | 25 kts | 53° |
| 2026-05-07 00:49 | 39.64254 | -106.90793 | 6575 ft | 23 kts | 80° |
| 2026-05-07 00:49 | 39.64280 | -106.90552 | 6575 ft | 31 kts | 82° |
| 2026-05-07 00:50 | 39.64312 | -106.90275 | 6575 ft | 29 kts | 81° |
| 2026-05-07 00:50 | 39.64333 | -106.90074 | 6575 ft | 11 kts | 77° |
| 2026-05-07 00:50 | 39.64337 | -106.90060 | 6575 ft | 0 kts | 65° |
| 2026-05-07 00:51 | 39.64346 | -106.90039 | 6575 ft | 7 kts | 54° |
| 2026-05-07 00:51 | 39.64404 | -106.90022 | 6575 ft | 6 kts | 332° |
| 2026-05-07 00:51 | 39.64432 | -106.90055 | 6575 ft | 6 kts | 303° |
| 2026-05-07 00:51 | 39.64440 | -106.90111 | 6575 ft | 0 kts | 261° |
| 2026-05-07 00:52 | 39.64440 | -106.90112 | 6574 ft | 0 kts | 261° |
| 2026-05-07 00:52 | 39.64437 | -106.90134 | 6575 ft | 18 kts | 262° |
| 2026-05-07 00:52 | 39.64384 | -106.90635 | 6575 ft | 93 kts | 261° |
| 2026-05-07 00:52 | 39.64260 | -106.91763 | 6575 ft | 159 kts | 262° |
| 2026-05-07 00:53 | 39.64056 | -106.93380 | 6799 ft | 195 kts | 248° |
| 2026-05-07 00:53 | 39.63287 | -106.94738 | 7698 ft | 191 kts | 216° |
| 2026-05-07 00:53 | 39.62125 | -106.95644 | 8179 ft | 205 kts | 210° |
| 2026-05-07 00:53 | 39.60828 | -106.96586 | 8539 ft | 225 kts | 210° |
| 2026-05-07 00:54 | 39.59392 | -106.97649 | 8895 ft | 246 kts | 219° |
| 2026-05-07 00:54 | 39.58272 | -106.99376 | 9307 ft | 260 kts | 250° |
| 2026-05-07 00:54 | 39.57978 | -107.01656 | 10001 ft | 262 kts | 274° |
| 2026-05-07 00:54 | 39.58084 | -107.04067 | 10086 ft | 273 kts | 277° |
| 2026-05-07 00:55 | 39.58643 | -107.06335 | 10094 ft | 257 kts | 306° |
| 2026-05-07 00:55 | 39.59796 | -107.08031 | 10097 ft | 253 kts | 316° |
| 2026-05-07 00:55 | 39.61050 | -107.09645 | 10084 ft | 256 kts | 319° |
| 2026-05-07 00:55 | 39.62584 | -107.10781 | 10111 ft | 255 kts | 347° |
| 2026-05-07 00:56 | 39.64353 | -107.10818 | 10120 ft | 257 kts | 9° |
| 2026-05-07 00:56 | 39.66111 | -107.10385 | 10067 ft | 255 kts | 9° |
| 2026-05-07 00:56 | 39.67843 | -107.09962 | 10080 ft | 256 kts | 10° |
| 2026-05-07 00:56 | 39.69634 | -107.09501 | 10491 ft | 264 kts | 10° |
| 2026-05-07 00:57 | 39.71409 | -107.09170 | 11325 ft | 263 kts | 356° |
| 2026-05-07 00:57 | 39.73204 | -107.09782 | 11672 ft | 281 kts | 330° |
| 2026-05-07 00:57 | 39.74734 | -107.11505 | 12069 ft | 301 kts | 309° |
| 2026-05-07 00:57 | 39.75919 | -107.13815 | 12439 ft | 320 kts | 304° |
| 2026-05-07 00:58 | 39.77184 | -107.16307 | 12843 ft | 337 kts | 306° |
| 2026-05-07 00:58 | 39.78479 | -107.18824 | 13649 ft | 339 kts | 306° |
| 2026-05-07 00:58 | 39.79789 | -107.21359 | 14453 ft | 341 kts | 307° |
| 2026-05-07 00:58 | 39.81125 | -107.23937 | 15133 ft | 347 kts | 307° |
| 2026-05-07 00:59 | 39.83805 | -107.29099 | 16615 ft | 352 kts | 308° |
| 2026-05-07 00:59 | 39.85180 | -107.31747 | 17326 ft | 354 kts | 309° |
| 2026-05-07 00:59 | 39.86560 | -107.34408 | 17965 ft | 358 kts | 309° |
| 2026-05-07 01:00 | 39.87949 | -107.37084 | 18584 ft | 362 kts | 309° |
| 2026-05-07 01:00 | 39.89351 | -107.39788 | 19245 ft | 364 kts | 309° |
| 2026-05-07 01:00 | 39.90764 | -107.42519 | 19946 ft | 364 kts | 309° |
| 2026-05-07 01:00 | 39.92194 | -107.45280 | 20414 ft | 371 kts | 310° |
| 2026-05-07 01:01 | 39.93628 | -107.48056 | 21099 ft | 371 kts | 309° |
| 2026-05-07 01:01 | 39.95058 | -107.50824 | 21598 ft | 375 kts | 309° |
| 2026-05-07 01:01 | 39.96349 | -107.53832 | 22153 ft | 385 kts | 300° |
| 2026-05-07 01:01 | 39.97290 | -107.57101 | 22644 ft | 391 kts | 296° |
| 2026-05-07 01:02 | 39.98200 | -107.60442 | 23235 ft | 392 kts | 296° |
| 2026-05-07 01:02 | 39.99108 | -107.63784 | 23681 ft | 397 kts | 296° |
| 2026-05-07 01:02 | 40.00030 | -107.67212 | 24227 ft | 399 kts | 296° |
| 2026-05-07 01:02 | 40.00940 | -107.70605 | 24668 ft | 404 kts | 296° |
| 2026-05-07 01:03 | 40.01866 | -107.74079 | 25234 ft | 404 kts | 296° |
| 2026-05-07 01:03 | 40.02783 | -107.77516 | 25639 ft | 409 kts | 296° |
| 2026-05-07 01:03 | 40.03717 | -107.81033 | 26254 ft | 408 kts | 296° |
| 2026-05-07 01:03 | 40.04647 | -107.84533 | 26545 ft | 415 kts | 296° |
| 2026-05-07 01:04 | 40.05579 | -107.88052 | 27071 ft | 415 kts | 296° |
| 2026-05-07 01:04 | 40.06423 | -107.91669 | 27432 ft | 424 kts | 289° |
| 2026-05-07 01:04 | 40.06828 | -107.95518 | 27829 ft | 435 kts | 281° |
| 2026-05-07 01:04 | 40.07029 | -107.99493 | 28264 ft | 437 kts | 281° |
| 2026-05-07 01:05 | 40.07228 | -108.03440 | 28610 ft | 441 kts | 281° |
| 2026-05-07 01:05 | 40.07420 | -108.07447 | 29061 ft | 442 kts | 281° |
| 2026-05-07 01:05 | 40.07603 | -108.11389 | 29555 ft | 441 kts | 281° |
| 2026-05-07 01:05 | 40.07782 | -108.15354 | 30094 ft | 440 kts | 281° |
| 2026-05-07 01:06 | 40.07961 | -108.19327 | 30182 ft | 439 kts | 281° |
| 2026-05-07 01:06 | 40.08310 | -108.27228 | 30184 ft | 435 kts | 281° |
| 2026-05-07 01:07 | 40.08655 | -108.35152 | 30183 ft | 439 kts | 281° |
| 2026-05-07 01:07 | 40.08991 | -108.43060 | 30175 ft | 436 kts | 281° |
| 2026-05-07 01:08 | 40.09322 | -108.50960 | 30170 ft | 438 kts | 281° |
| 2026-05-07 01:08 | 40.09647 | -108.58836 | 30173 ft | 437 kts | 281° |
| 2026-05-07 01:09 | 40.09965 | -108.66718 | 30182 ft | 437 kts | 280° |
| 2026-05-07 01:09 | 40.10281 | -108.74641 | 30192 ft | 437 kts | 279° |
| 2026-05-07 01:10 | 40.10591 | -108.82559 | 30192 ft | 438 kts | 280° |
| 2026-05-07 01:10 | 40.10895 | -108.90467 | 30191 ft | 438 kts | 280° |
| 2026-05-07 01:11 | 40.11194 | -108.98373 | 30189 ft | 437 kts | 279° |
| 2026-05-07 01:11 | 40.11490 | -109.06342 | 30194 ft | 439 kts | 279° |
| 2026-05-07 01:12 | 40.11776 | -109.14233 | 30194 ft | 437 kts | 279° |
| 2026-05-07 01:12 | 40.12059 | -109.22123 | 30192 ft | 436 kts | 279° |
| 2026-05-07 01:13 | 40.12337 | -109.30052 | 30195 ft | 437 kts | 279° |
| 2026-05-07 01:13 | 40.12608 | -109.37937 | 30205 ft | 437 kts | 279° |
| 2026-05-07 01:14 | 40.12874 | -109.45842 | 30208 ft | 438 kts | 279° |
| 2026-05-07 01:14 | 40.13135 | -109.53751 | 30208 ft | 438 kts | 279° |
| 2026-05-07 01:15 | 40.13392 | -109.61691 | 30203 ft | 437 kts | 279° |
| 2026-05-07 01:15 | 40.13643 | -109.69614 | 30204 ft | 438 kts | 279° |
| 2026-05-07 01:16 | 40.13887 | -109.77536 | 30194 ft | 438 kts | 279° |
| 2026-05-07 01:16 | 40.14128 | -109.85474 | 30194 ft | 437 kts | 279° |
| 2026-05-07 01:17 | 40.14361 | -109.93381 | 30193 ft | 437 kts | 279° |
| 2026-05-07 01:17 | 40.14590 | -110.01279 | 30202 ft | 438 kts | 279° |
| 2026-05-07 01:18 | 40.14813 | -110.09185 | 30187 ft | 437 kts | 279° |
| 2026-05-07 01:18 | 40.14888 | -110.17126 | 30206 ft | 441 kts | 276° |
| 2026-05-07 01:18 | 40.14852 | -110.21145 | 30035 ft | 443 kts | 276° |
| 2026-05-07 01:19 | 40.14819 | -110.25156 | 29540 ft | 439 kts | 276° |
| 2026-05-07 01:19 | 40.14783 | -110.29060 | 29073 ft | 430 kts | 276° |
| 2026-05-07 01:19 | 40.14747 | -110.32946 | 28605 ft | 421 kts | 276° |
| 2026-05-07 01:19 | 40.14714 | -110.36717 | 28148 ft | 418 kts | 276° |
| 2026-05-07 01:20 | 40.14681 | -110.40513 | 27702 ft | 417 kts | 276° |
| 2026-05-07 01:20 | 40.14646 | -110.44247 | 27259 ft | 417 kts | 276° |
| 2026-05-07 01:20 | 40.14608 | -110.48035 | 26815 ft | 414 kts | 276° |
| 2026-05-07 01:20 | 40.14570 | -110.51784 | 26375 ft | 411 kts | 276° |
| 2026-05-07 01:21 | 40.14531 | -110.55460 | 25942 ft | 407 kts | 276° |
| 2026-05-07 01:21 | 40.14491 | -110.59135 | 25507 ft | 405 kts | 276° |
| 2026-05-07 01:21 | 40.14451 | -110.62799 | 25073 ft | 403 kts | 276° |
| 2026-05-07 01:21 | 40.14409 | -110.66451 | 24646 ft | 402 kts | 275° |
| 2026-05-07 01:22 | 40.14367 | -110.70051 | 24220 ft | 400 kts | 275° |
| 2026-05-07 01:22 | 40.14323 | -110.73643 | 23859 ft | 395 kts | 275° |
| 2026-05-07 01:22 | 40.14278 | -110.77244 | 23550 ft | 393 kts | 275° |
| 2026-05-07 01:22 | 40.14234 | -110.80765 | 23258 ft | 393 kts | 275° |
| 2026-05-07 01:23 | 40.14188 | -110.84342 | 22956 ft | 392 kts | 275° |
| 2026-05-07 01:23 | 40.14141 | -110.87881 | 22662 ft | 391 kts | 275° |
| 2026-05-07 01:23 | 40.14092 | -110.91443 | 22344 ft | 389 kts | 275° |
| 2026-05-07 01:23 | 40.14043 | -110.94955 | 22015 ft | 388 kts | 275° |
| 2026-05-07 01:24 | 40.13995 | -110.98422 | 21667 ft | 386 kts | 275° |
| 2026-05-07 01:24 | 40.13943 | -111.01914 | 21295 ft | 384 kts | 275° |
| 2026-05-07 01:24 | 40.13892 | -111.05406 | 20905 ft | 381 kts | 274° |
| 2026-05-07 01:24 | 40.13840 | -111.08823 | 20511 ft | 378 kts | 275° |
| 2026-05-07 01:25 | 40.13788 | -111.12239 | 20108 ft | 375 kts | 275° |
| 2026-05-07 01:25 | 40.13735 | -111.15601 | 19703 ft | 374 kts | 275° |
| 2026-05-07 01:25 | 40.13690 | -111.18984 | 19287 ft | 370 kts | 277° |
| 2026-05-07 01:25 | 40.14046 | -111.22222 | 18881 ft | 355 kts | 293° |
| 2026-05-07 01:26 | 40.14910 | -111.25201 | 18532 ft | 351 kts | 297° |
| 2026-05-07 01:26 | 40.15822 | -111.28155 | 18162 ft | 353 kts | 297° |
| 2026-05-07 01:26 | 40.16737 | -111.31106 | 17759 ft | 351 kts | 297° |
| 2026-05-07 01:26 | 40.17653 | -111.34038 | 17354 ft | 347 kts | 297° |
| 2026-05-07 01:27 | 40.18559 | -111.36929 | 16975 ft | 344 kts | 297° |
| 2026-05-07 01:27 | 40.19464 | -111.39812 | 16572 ft | 343 kts | 297° |
| 2026-05-07 01:27 | 40.20366 | -111.42686 | 16211 ft | 341 kts | 297° |
| 2026-05-07 01:27 | 40.21267 | -111.45553 | 15812 ft | 339 kts | 297° |
| 2026-05-07 01:28 | 40.22154 | -111.48380 | 15463 ft | 337 kts | 297° |
| 2026-05-07 01:28 | 40.23032 | -111.51180 | 15095 ft | 336 kts | 297° |
| 2026-05-07 01:28 | 40.23912 | -111.53988 | 14739 ft | 334 kts | 297° |
| 2026-05-07 01:28 | 40.24787 | -111.56786 | 14385 ft | 332 kts | 297° |
| 2026-05-07 01:29 | 40.25661 | -111.59580 | 14036 ft | 331 kts | 297° |
| 2026-05-07 01:29 | 40.26528 | -111.62353 | 13680 ft | 330 kts | 296° |
| 2026-05-07 01:29 | 40.27396 | -111.65136 | 13313 ft | 327 kts | 296° |
| 2026-05-07 01:29 | 40.28249 | -111.67873 | 12972 ft | 325 kts | 296° |
| 2026-05-07 01:30 | 40.29096 | -111.70590 | 12645 ft | 325 kts | 295° |
| 2026-05-07 01:30 | 40.29955 | -111.73348 | 12248 ft | 325 kts | 295° |
| 2026-05-07 01:30 | 40.30783 | -111.76019 | 12044 ft | 312 kts | 295° |
| 2026-05-07 01:30 | 40.31573 | -111.78571 | 12044 ft | 295 kts | 295° |
| 2026-05-07 01:31 | 40.32329 | -111.81014 | 12043 ft | 278 kts | 296° |
| 2026-05-07 01:31 | 40.33028 | -111.83273 | 12046 ft | 260 kts | 296° |
| 2026-05-07 01:31 | 40.33690 | -111.85412 | 12048 ft | 251 kts | 296° |
| 2026-05-07 01:31 | 40.34471 | -111.87474 | 12072 ft | 257 kts | 312° |
| 2026-05-07 01:32 | 40.35837 | -111.89021 | 11929 ft | 264 kts | 328° |
| 2026-05-07 01:32 | 40.37377 | -111.90337 | 11485 ft | 266 kts | 328° |
| 2026-05-07 01:32 | 40.38933 | -111.91682 | 10956 ft | 270 kts | 328° |
| 2026-05-07 01:32 | 40.40506 | -111.93029 | 10367 ft | 277 kts | 328° |
| 2026-05-07 01:33 | 40.42129 | -111.94413 | 10045 ft | 272 kts | 328° |
| 2026-05-07 01:33 | 40.43760 | -111.95416 | 10043 ft | 254 kts | 348° |
| 2026-05-07 01:33 | 40.45497 | -111.95724 | 9645 ft | 251 kts | 352° |
| 2026-05-07 01:33 | 40.47234 | -111.95970 | 9151 ft | 252 kts | 353° |
| 2026-05-07 01:34 | 40.48976 | -111.96202 | 8747 ft | 249 kts | 353° |
| 2026-05-07 01:34 | 40.50689 | -111.96416 | 8424 ft | 247 kts | 353° |
| 2026-05-07 01:34 | 40.52406 | -111.96626 | 8096 ft | 247 kts | 354° |
| 2026-05-07 01:34 | 40.54106 | -111.96828 | 7674 ft | 247 kts | 354° |
| 2026-05-07 01:35 | 40.55824 | -111.97030 | 7167 ft | 251 kts | 354° |
| 2026-05-07 01:35 | 40.57519 | -111.97227 | 6771 ft | 239 kts | 354° |
| 2026-05-07 01:35 | 40.59175 | -111.97427 | 6285 ft | 240 kts | 355° |
| 2026-05-07 01:35 | 40.60824 | -111.97621 | 6140 ft | 236 kts | 355° |
| 2026-05-07 01:36 | 40.62460 | -111.97812 | 6147 ft | 229 kts | 355° |
| 2026-05-07 01:36 | 40.63975 | -111.97987 | 6126 ft | 208 kts | 355° |
| 2026-05-07 01:36 | 40.65331 | -111.98144 | 6149 ft | 189 kts | 355° |
| 2026-05-07 01:36 | 40.66647 | -111.98296 | 6186 ft | 191 kts | 355° |
| 2026-05-07 01:37 | 40.67909 | -111.98441 | 6047 ft | 172 kts | 355° |
| 2026-05-07 01:37 | 40.69040 | -111.98571 | 5836 ft | 153 kts | 354° |
| 2026-05-07 01:37 | 40.70044 | -111.98687 | 5604 ft | 138 kts | 354° |
| 2026-05-07 01:37 | 40.71008 | -111.98798 | 5461 ft | 142 kts | 354° |
| 2026-05-07 01:38 | 40.72017 | -111.98916 | 5300 ft | 148 kts | 354° |
| 2026-05-07 01:38 | 40.73053 | -111.99036 | 5100 ft | 147 kts | 354° |
| 2026-05-07 01:38 | 40.74054 | -111.99150 | 4912 ft | 145 kts | 354° |
| 2026-05-07 01:38 | 40.75065 | -111.99263 | 4724 ft | 145 kts | 354° |
| 2026-05-07 01:39 | 40.76070 | -111.99374 | 4518 ft | 144 kts | 354° |
| 2026-05-07 01:39 | 40.77070 | -111.99490 | 4345 ft | 143 kts | 353° |
| 2026-05-07 01:39 | 40.78052 | -111.99614 | 4230 ft | 136 kts | 354° |
| 2026-05-07 01:39 | 40.78797 | -111.99700 | 4228 ft | 78 kts | 354° |
| 2026-05-07 01:40 | 40.79282 | -111.99752 | 4227 ft | 57 kts | 5° |
| 2026-05-07 01:40 | 40.79502 | -111.99649 | 4227 ft | 22 kts | 46° |
| 2026-05-07 01:40 | 40.79519 | -111.99623 | 4227 ft | 2 kts | 50° |
| 2026-05-07 01:40 | 40.79530 | -111.99601 | 4227 ft | 1 kts | 66° |
| 2026-05-07 01:41 | 40.79522 | -111.99569 | 4227 ft | 7 kts | 137° |
| 2026-05-07 01:41 | 40.79469 | -111.99558 | 4228 ft | 12 kts | 177° |
| 2026-05-07 01:41 | 40.79355 | -111.99545 | 4228 ft | 19 kts | 176° |
| 2026-05-07 01:41 | 40.79219 | -111.99531 | 4228 ft | 19 kts | 174° |
| 2026-05-07 01:42 | 40.79084 | -111.99515 | 4228 ft | 20 kts | 174° |
| 2026-05-07 01:42 | 40.78934 | -111.99497 | 4228 ft | 22 kts | 175° |
| 2026-05-07 01:42 | 40.78775 | -111.99480 | 4228 ft | 22 kts | 175° |
| 2026-05-07 01:42 | 40.78719 | -111.99424 | 4228 ft | 4 kts | 88° |
| 2026-05-07 01:43 | 40.78707 | -111.99393 | 4228 ft | 7 kts | 142° |
| 2026-05-07 01:43 | 40.78657 | -111.99325 | 4228 ft | 11 kts | 108° |
| 2026-05-07 01:43 | 40.78656 | -111.99222 | 4228 ft | 11 kts | 84° |
| 2026-05-07 01:43 | 40.78664 | -111.99103 | 4228 ft | 14 kts | 85° |
| 2026-05-07 01:44 | 40.78674 | -111.98977 | 4229 ft | 13 kts | 84° |
| 2026-05-07 01:44 | 40.78679 | -111.98871 | 4229 ft | 10 kts | 85° |
| 2026-05-07 01:44 | 40.78685 | -111.98786 | 4229 ft | 7 kts | 84° |
| 2026-05-07 01:44 | 40.78690 | -111.98717 | 4229 ft | 9 kts | 85° |
| 2026-05-07 01:45 | 40.78699 | -111.98582 | 4229 ft | 23 kts | 85° |
| 2026-05-07 01:45 | 40.78711 | -111.98415 | 4230 ft | 3 kts | 84° |
| 2026-05-07 01:45 | 40.78709 | -111.98390 | 4230 ft | 2 kts | 122° |
| 2026-05-07 01:45 | 40.78695 | -111.98378 | 4230 ft | 2 kts | 161° |
| 2026-05-07 01:46 | 40.78664 | -111.98371 | 4230 ft | 6 kts | 175° |
| 2026-05-07 01:46 | 40.78630 | -111.98367 | 4230 ft | 0 kts | 175° |
| 2026-05-07 01:46 | 40.78629 | -111.98367 | 4230 ft | 0 kts | 175° |